KMEV/MEV METAR and TAF weather

Enter ICAO airport designator
Station Type Date Time Source
KMEV METAR 2019/06/18 05:20 UTC NOAA

KMEV 180520Z AUTO 12003KT 10SM CLR 17/06 A3010 RMK AO2


Station Type Date Time Source
KMEV Decoded METAR 2019/06/18 05:20 UTC NOAA

Station name not available
Jun 18, 2019 - 01:20 AM EDT / 2019.06.18 0520 UTC
Wind: from the ESE (120 degrees) at 3 MPH (3 KT):0
Visibility: 10 mile(s):0
Sky conditions: clear
Temperature: 62 F (17 C)
Dew Point: 42 F (6 C)
Relative Humidity: 48%
Pressure (altimeter): 30.1 in. Hg (1019 hPa)
ob: KMEV 180520Z AUTO 12003KT 10SM CLR 17/06 A3010 RMK AO2
cycle: 5

Station Type Date Time Source
KMEV TAF UTC NOAA

Error!

Example: see airport list